createdAt,value
2018-11-11T00:01:17.369Z,7.20
2018-11-11T00:03:45.626Z,7.20
2018-11-11T00:06:13.919Z,7.20
2018-11-11T00:08:42.185Z,7.30
2018-11-11T00:11:10.461Z,7.30
2018-11-11T00:13:38.782Z,7.30
2018-11-11T00:16:07.062Z,7.30
2018-11-11T00:18:35.386Z,7.30
2018-11-11T00:21:03.672Z,7.30
2018-11-11T00:23:31.985Z,7.30
2018-11-11T00:26:00.296Z,7.30
2018-11-11T00:28:28.652Z,7.30
2018-11-11T00:30:56.883Z,7.40
2018-11-11T00:33:25.194Z,7.40
2018-11-11T00:35:53.494Z,7.40
2018-11-11T00:38:21.837Z,7.40
2018-11-11T00:40:50.172Z,7.30
2018-11-11T00:43:18.501Z,7.40
2018-11-11T00:45:46.831Z,7.30
2018-11-11T00:48:15.130Z,7.20
2018-11-11T00:50:43.442Z,7.20
2018-11-11T00:53:11.753Z,7.20
2018-11-11T00:55:40.816Z,7.10
2018-11-11T00:58:09.109Z,7.00
2018-11-11T01:00:37.426Z,7.10
2018-11-11T01:03:05.897Z,7.10
2018-11-11T01:05:34.194Z,7.10
2018-11-11T01:08:02.501Z,7.30
2018-11-11T01:10:30.817Z,7.30
2018-11-11T01:12:59.100Z,7.20
2018-11-11T01:15:27.416Z,7.20
2018-11-11T01:17:55.708Z,7.30
2018-11-11T01:20:24.003Z,7.40
2018-11-11T01:22:52.323Z,7.40
2018-11-11T01:25:20.621Z,7.50
2018-11-11T01:27:48.929Z,7.60
2018-11-11T01:30:17.237Z,7.60
2018-11-11T01:32:45.541Z,7.60
2018-11-11T01:35:15.010Z,7.70
2018-11-11T01:37:43.676Z,7.70
2018-11-11T01:40:12.084Z,7.70
2018-11-11T01:42:40.453Z,7.70
2018-11-11T01:45:12.172Z,7.70
2018-11-11T01:47:40.500Z,7.70
2018-11-11T01:50:09.654Z,7.70
2018-11-11T01:52:37.968Z,7.70
2018-11-11T01:55:06.312Z,7.60
2018-11-11T01:57:34.621Z,7.60
2018-11-11T02:00:02.977Z,7.60
2018-11-11T02:02:31.424Z,7.60
2018-11-11T02:04:59.733Z,7.60
2018-11-11T02:07:28.028Z,7.70
2018-11-11T02:09:56.409Z,7.70
2018-11-11T02:12:24.592Z,7.70
2018-11-11T02:14:52.985Z,7.60
2018-11-11T02:17:21.320Z,7.60
2018-11-11T02:19:49.629Z,7.60
2018-11-11T02:22:17.908Z,7.50
2018-11-11T02:24:46.221Z,7.50
2018-11-11T02:27:14.549Z,7.50
2018-11-11T02:29:42.852Z,7.30
2018-11-11T02:32:11.152Z,7.30
2018-11-11T02:34:39.449Z,7.30
2018-11-11T02:37:07.775Z,7.20
2018-11-11T02:39:36.044Z,7.20
2018-11-11T02:42:04.336Z,7.20
2018-11-11T02:44:32.613Z,7.30
2018-11-11T02:47:00.893Z,7.30
2018-11-11T02:49:29.267Z,7.30
2018-11-11T02:51:57.735Z,7.40
2018-11-11T02:54:26.030Z,7.50
2018-11-11T02:56:54.317Z,7.60
2018-11-11T02:59:22.576Z,7.50
2018-11-11T03:01:50.866Z,7.50
2018-11-11T03:04:19.167Z,7.50
2018-11-11T03:06:47.408Z,7.40
2018-11-11T03:09:15.840Z,7.40
2018-11-11T03:11:44.112Z,7.30
2018-11-11T03:14:12.364Z,7.10
2018-11-11T03:16:40.633Z,7.10
2018-11-11T03:19:09.081Z,7.10
2018-11-11T03:21:37.364Z,7.20
2018-11-11T03:24:06.016Z,7.20
2018-11-11T03:26:34.352Z,7.30
2018-11-11T03:29:02.626Z,7.40
2018-11-11T03:31:30.892Z,7.50
2018-11-11T03:33:59.292Z,7.60
2018-11-11T03:36:27.699Z,7.50
2018-11-11T03:38:56.159Z,7.50
2018-11-11T03:41:24.497Z,7.50
2018-11-11T03:43:52.931Z,7.50
2018-11-11T03:46:21.352Z,7.50
2018-11-11T03:48:49.729Z,7.60
2018-11-11T03:51:18.196Z,7.70
2018-11-11T03:53:46.572Z,7.70
2018-11-11T03:56:15.015Z,7.70
2018-11-11T03:58:43.441Z,7.60
2018-11-11T04:01:11.772Z,7.50
2018-11-11T04:03:40.164Z,7.50
2018-11-11T04:06:08.567Z,7.50
2018-11-11T04:08:36.956Z,7.60
2018-11-11T04:11:05.720Z,7.60
2018-11-11T04:13:34.178Z,7.70
2018-11-11T04:16:02.526Z,7.70
2018-11-11T04:18:30.938Z,7.70
2018-11-11T04:20:59.329Z,7.70
2018-11-11T04:23:27.876Z,7.80
2018-11-11T04:25:56.324Z,7.80
2018-11-11T04:28:24.767Z,7.80
2018-11-11T04:30:53.218Z,7.70
2018-11-11T04:33:21.655Z,7.70
2018-11-11T04:35:50.049Z,7.60
2018-11-11T04:38:18.421Z,7.60
2018-11-11T04:40:46.781Z,7.70
2018-11-11T04:43:15.244Z,7.70
2018-11-11T04:45:43.567Z,7.70
2018-11-11T04:48:12.011Z,7.80
2018-11-11T04:50:40.392Z,7.80
2018-11-11T04:53:08.856Z,7.70
2018-11-11T04:55:37.246Z,7.70
2018-11-11T04:58:05.662Z,7.70
2018-11-11T05:00:34.037Z,7.70
2018-11-11T05:03:02.463Z,7.70
2018-11-11T05:05:30.873Z,7.70
2018-11-11T05:07:59.249Z,7.60
2018-11-11T05:10:27.624Z,7.60
2018-11-11T05:12:56.004Z,7.50
2018-11-11T05:15:24.444Z,7.40
2018-11-11T05:17:52.780Z,7.20
2018-11-11T05:20:21.178Z,7.20
2018-11-11T05:22:49.624Z,7.00
2018-11-11T05:25:18.038Z,6.90
2018-11-11T05:27:46.473Z,6.70
2018-11-11T05:30:15.250Z,6.70
2018-11-11T05:32:43.580Z,6.60
2018-11-11T05:35:12.412Z,6.70
2018-11-11T05:37:41.472Z,6.80
2018-11-11T05:40:13.573Z,6.90
2018-11-11T05:42:42.788Z,6.80
2018-11-11T05:45:12.076Z,6.90
2018-11-11T05:47:40.968Z,6.90
2018-11-11T05:50:11.188Z,6.90
2018-11-11T05:52:39.784Z,6.90
2018-11-11T05:55:08.454Z,6.90
2018-11-11T05:57:36.729Z,6.80
2018-11-11T06:00:06.190Z,6.70
2018-11-11T06:02:34.472Z,6.60
2018-11-11T06:05:02.731Z,6.60
2018-11-11T06:07:30.997Z,6.50
2018-11-11T06:09:59.268Z,6.40
2018-11-11T06:12:27.620Z,6.40
2018-11-11T06:14:55.912Z,6.40
2018-11-11T06:17:24.176Z,6.30
2018-11-11T06:19:52.441Z,6.20
2018-11-11T06:22:20.699Z,6.20
2018-11-11T06:24:48.976Z,6.20
2018-11-11T06:27:17.243Z,6.20
2018-11-11T06:29:45.518Z,6.20
2018-11-11T06:32:13.764Z,6.20
2018-11-11T06:34:42.021Z,6.30
2018-11-11T06:37:10.294Z,6.20
2018-11-11T06:39:38.555Z,6.10
2018-11-11T06:42:06.827Z,6.10
2018-11-11T06:44:35.076Z,6.10
2018-11-11T06:47:03.349Z,6.10
2018-11-11T06:49:31.610Z,6.20
2018-11-11T06:51:59.881Z,6.30
2018-11-11T06:54:28.176Z,6.30
2018-11-11T06:56:56.478Z,6.40
2018-11-11T06:59:24.742Z,6.40
2018-11-11T07:01:53.056Z,6.40
2018-11-11T07:04:21.299Z,6.50
2018-11-11T07:06:49.569Z,6.50
2018-11-11T07:09:17.832Z,6.60
2018-11-11T07:11:46.088Z,6.80
2018-11-11T07:14:14.448Z,6.80
2018-11-11T07:16:42.637Z,6.70
2018-11-11T07:19:10.911Z,6.70
2018-11-11T07:21:39.172Z,6.80
2018-11-11T07:24:07.494Z,6.90
2018-11-11T07:26:35.729Z,6.90
2018-11-11T07:29:04.025Z,6.90
2018-11-11T07:31:32.340Z,7.10
2018-11-11T07:34:00.549Z,7.20
2018-11-11T07:36:28.809Z,7.20
2018-11-11T07:38:57.103Z,7.20
2018-11-11T07:41:25.362Z,7.20
2018-11-11T07:43:53.609Z,7.30
2018-11-11T07:46:21.898Z,7.40
2018-11-11T07:48:50.140Z,7.50
2018-11-11T07:51:18.401Z,7.60
2018-11-11T07:53:46.689Z,7.60
2018-11-11T07:56:14.987Z,7.60
2018-11-11T07:58:43.256Z,7.70
2018-11-11T08:01:11.517Z,7.60
2018-11-11T08:03:39.814Z,7.60
2018-11-11T08:06:08.110Z,7.60
2018-11-11T08:08:36.352Z,7.70
2018-11-11T08:11:16.166Z,7.70
2018-11-11T08:13:44.350Z,7.60
2018-11-11T08:16:12.614Z,7.60
2018-11-11T08:18:40.905Z,7.70
2018-11-11T08:21:09.164Z,7.70
2018-11-11T08:23:37.484Z,7.70
2018-11-11T08:26:05.921Z,7.90
2018-11-11T08:28:34.164Z,8.10
2018-11-11T08:31:02.416Z,8.20
2018-11-11T08:33:30.730Z,8.40
2018-11-11T08:35:58.996Z,8.50
2018-11-11T08:38:27.284Z,8.50
2018-11-11T08:40:55.549Z,8.60
2018-11-11T08:43:23.829Z,8.60
2018-11-11T08:45:52.104Z,8.60
2018-11-11T08:48:20.424Z,8.60
2018-11-11T08:50:48.638Z,8.70
2018-11-11T08:53:16.963Z,8.60
2018-11-11T08:55:45.261Z,8.60
2018-11-11T08:58:13.579Z,8.60
2018-11-11T09:00:41.785Z,8.70
2018-11-11T09:03:10.053Z,8.70
2018-11-11T09:05:38.316Z,8.70
2018-11-11T09:08:06.600Z,8.90
2018-11-11T09:10:34.869Z,8.80
2018-11-11T09:13:08.212Z,8.80
2018-11-11T09:15:36.541Z,8.80
2018-11-11T09:18:04.933Z,9.00
2018-11-11T09:20:33.320Z,9.10
2018-11-11T09:23:01.591Z,9.10
2018-11-11T09:25:29.898Z,9.00
2018-11-11T09:27:58.242Z,9.10
2018-11-11T09:30:26.611Z,9.20
2018-11-11T09:32:54.798Z,9.30
2018-11-11T09:35:23.136Z,9.50
2018-11-11T09:37:51.328Z,9.60
2018-11-11T09:40:19.600Z,9.70
2018-11-11T09:42:47.864Z,9.80
2018-11-11T09:45:16.497Z,10.00
2018-11-11T09:47:45.421Z,10.10
2018-11-11T09:50:15.217Z,10.20
2018-11-11T09:52:43.539Z,10.40
2018-11-11T09:55:12.808Z,10.60
2018-11-11T09:57:41.377Z,10.70
2018-11-11T10:00:13.481Z,10.70
2018-11-11T10:02:42.884Z,10.80
2018-11-11T10:05:26.990Z,10.80
2018-11-11T10:07:59.682Z,10.90
2018-11-11T10:10:40.416Z,11.00
2018-11-11T10:13:17.132Z,10.90
2018-11-11T10:16:22.521Z,11.00
2018-11-11T10:19:03.485Z,11.00
2018-11-11T10:21:35.299Z,11.30
2018-11-11T10:24:11.689Z,11.50
2018-11-11T10:26:49.784Z,11.60
2018-11-11T10:30:24.852Z,11.70
2018-11-11T10:33:26.336Z,11.60
2018-11-11T10:36:01.022Z,11.50
2018-11-11T10:38:36.158Z,11.50
2018-11-11T10:41:09.237Z,11.50
2018-11-11T10:43:55.980Z,11.40
2018-11-11T10:46:46.577Z,11.40
2018-11-11T10:49:18.805Z,11.40
2018-11-11T10:51:47.101Z,11.50
2018-11-11T10:54:15.442Z,11.50
2018-11-11T10:56:43.684Z,11.60
2018-11-11T10:59:11.990Z,11.60
2018-11-11T11:01:45.556Z,11.70
2018-11-11T11:04:13.899Z,11.70
2018-11-11T11:06:47.576Z,11.80
2018-11-11T11:09:15.866Z,11.90
2018-11-11T11:11:44.744Z,11.80
2018-11-11T11:14:13.731Z,11.80
2018-11-11T11:16:42.118Z,11.80
2018-11-11T11:19:10.417Z,11.90
2018-11-11T11:21:38.771Z,11.80
2018-11-11T11:24:07.085Z,11.70
2018-11-11T11:26:35.428Z,11.60
2018-11-11T11:29:03.733Z,11.60
2018-11-11T11:31:32.072Z,11.50
2018-11-11T11:34:00.482Z,11.60
2018-11-11T11:36:28.772Z,11.50
2018-11-11T11:38:57.057Z,11.50
2018-11-11T11:41:25.454Z,11.50
2018-11-11T11:43:53.673Z,11.50
2018-11-11T11:46:21.938Z,11.70
2018-11-11T11:48:50.207Z,11.80
2018-11-11T11:51:18.483Z,12.00
2018-11-11T11:53:46.752Z,12.20
2018-11-11T11:56:15.021Z,12.30
2018-11-11T11:58:43.305Z,12.50
2018-11-11T12:01:11.605Z,12.60
2018-11-11T12:03:40.629Z,12.60
2018-11-11T12:06:08.976Z,12.80
2018-11-11T12:08:37.277Z,12.90
2018-11-11T12:11:05.692Z,13.10
2018-11-11T12:13:34.056Z,13.20
2018-11-11T12:16:02.316Z,13.40
2018-11-11T12:18:30.621Z,13.50
2018-11-11T12:20:58.897Z,13.60
2018-11-11T12:23:28.434Z,13.70
2018-11-11T12:25:59.057Z,13.70
2018-11-11T12:28:27.422Z,13.70
2018-11-11T12:30:55.789Z,13.70
2018-11-11T12:33:23.985Z,13.70
2018-11-11T12:35:52.255Z,13.60
2018-11-11T12:38:26.895Z,13.60
2018-11-11T12:40:55.169Z,13.70
2018-11-11T12:43:23.520Z,13.70
2018-11-11T12:45:51.789Z,13.70
2018-11-11T12:48:20.065Z,13.70
2018-11-11T12:50:48.346Z,13.70
2018-11-11T12:53:16.649Z,13.80
2018-11-11T12:55:44.980Z,13.90
2018-11-11T12:58:13.285Z,13.90
2018-11-11T13:00:41.612Z,13.80
2018-11-11T13:03:09.865Z,13.60
2018-11-11T13:05:38.144Z,13.60
2018-11-11T13:08:06.485Z,13.60
2018-11-11T13:10:34.680Z,13.60
2018-11-11T13:13:02.964Z,13.60
2018-11-11T13:15:31.297Z,13.70
2018-11-11T13:17:59.560Z,13.70
2018-11-11T13:20:27.829Z,13.80
2018-11-11T13:22:56.391Z,13.70
2018-11-11T13:25:24.510Z,13.80
2018-11-11T13:27:52.784Z,13.80
2018-11-11T13:30:21.052Z,13.70
2018-11-11T13:32:49.481Z,13.70
2018-11-11T13:35:17.762Z,13.70
2018-11-11T13:37:46.396Z,13.70
2018-11-11T13:40:17.018Z,13.70
2018-11-11T13:42:46.434Z,13.80
2018-11-11T13:45:16.918Z,13.80
2018-11-11T13:47:46.753Z,13.80
2018-11-11T13:50:24.494Z,13.90
2018-11-11T13:53:00.929Z,14.00
2018-11-11T13:55:29.635Z,14.00
2018-11-11T13:57:58.492Z,14.00
2018-11-11T14:00:28.116Z,14.00
2018-11-11T14:02:57.089Z,14.00
2018-11-11T14:05:25.455Z,14.00
2018-11-11T14:07:53.773Z,13.90
2018-11-11T14:10:22.050Z,13.90
2018-11-11T14:12:50.340Z,13.90
2018-11-11T14:15:20.499Z,13.90
2018-11-11T14:17:49.260Z,13.90
2018-11-11T14:20:19.022Z,14.00
2018-11-11T14:22:48.318Z,14.00
2018-11-11T14:25:20.433Z,13.90
2018-11-11T14:27:48.669Z,13.90
2018-11-11T14:30:18.454Z,13.90
2018-11-11T14:32:47.624Z,13.90
2018-11-11T14:35:15.849Z,13.90
2018-11-11T14:37:44.416Z,13.90
2018-11-11T14:40:19.925Z,13.90
2018-11-11T14:42:48.272Z,13.90
2018-11-11T14:45:17.546Z,13.90
2018-11-11T14:47:47.031Z,13.90
2018-11-11T14:50:16.185Z,13.90
2018-11-11T14:52:45.032Z,13.90
2018-11-11T14:55:20.473Z,13.90
2018-11-11T14:57:49.776Z,13.90
2018-11-11T15:00:20.293Z,13.90
2018-11-11T15:03:20.801Z,13.80
2018-11-11T15:05:49.401Z,13.80
2018-11-11T15:08:17.673Z,13.80
2018-11-11T15:10:45.957Z,13.70
2018-11-11T15:13:15.345Z,13.70
2018-11-11T15:15:43.614Z,13.70
2018-11-11T15:18:11.934Z,13.60
2018-11-11T15:20:40.537Z,13.50
2018-11-11T15:23:09.191Z,13.50
2018-11-11T15:25:37.481Z,13.40
2018-11-11T15:28:06.461Z,13.30
2018-11-11T15:30:36.043Z,13.30
2018-11-11T15:33:05.064Z,13.20
2018-11-11T15:35:33.368Z,13.10
2018-11-11T15:38:01.774Z,13.10
2018-11-11T15:40:31.332Z,12.90
2018-11-11T15:42:59.942Z,12.90
2018-11-11T15:45:31.478Z,12.80
2018-11-11T15:48:00.145Z,12.70
2018-11-11T15:50:29.652Z,12.60
2018-11-11T15:52:59.198Z,12.50
2018-11-11T15:55:28.700Z,12.40
2018-11-11T15:57:57.016Z,12.30
2018-11-11T16:00:28.541Z,12.30
2018-11-11T16:02:56.848Z,12.10
2018-11-11T16:05:25.217Z,12.00
2018-11-11T16:07:54.057Z,12.00
2018-11-11T16:10:27.588Z,12.00
2018-11-11T16:12:55.963Z,11.90
2018-11-11T16:15:26.535Z,11.90
2018-11-11T16:17:56.361Z,11.90
2018-11-11T16:20:25.955Z,11.90
2018-11-11T16:22:55.589Z,11.70
2018-11-11T16:25:23.969Z,11.60
2018-11-11T16:27:52.189Z,11.50
2018-11-11T16:30:23.531Z,11.40
2018-11-11T16:32:52.380Z,11.40
2018-11-11T16:35:22.092Z,11.40
2018-11-11T16:37:50.379Z,11.30
2018-11-11T16:40:22.972Z,11.20
2018-11-11T16:42:51.684Z,11.10
2018-11-11T16:45:21.123Z,11.10
2018-11-11T16:47:49.469Z,11.00
2018-11-11T16:50:20.142Z,11.00
2018-11-11T16:52:49.269Z,11.00
2018-11-11T16:55:18.856Z,11.00
2018-11-11T16:57:47.121Z,11.00
2018-11-11T17:00:17.714Z,10.90
2018-11-11T17:02:46.535Z,10.80
2018-11-11T17:05:16.269Z,10.80
2018-11-11T17:07:44.867Z,10.70
2018-11-11T17:10:15.628Z,10.70
2018-11-11T17:12:44.773Z,10.60
2018-11-11T17:15:15.503Z,10.60
2018-11-11T17:17:43.877Z,10.50
2018-11-11T17:20:13.945Z,10.30
2018-11-11T17:22:42.565Z,10.30
2018-11-11T17:25:12.139Z,10.20
2018-11-11T17:27:40.486Z,10.10
2018-11-11T17:30:11.609Z,10.10
2018-11-11T17:32:40.084Z,10.10
2018-11-11T17:35:08.812Z,10.00
2018-11-11T17:37:37.119Z,9.90
2018-11-11T17:40:08.983Z,9.90
2018-11-11T17:42:37.588Z,9.90
2018-11-11T17:45:06.516Z,9.80
2018-11-11T17:50:02.829Z,9.70
2018-11-11T17:52:31.208Z,9.70
2018-11-11T17:54:59.722Z,9.60
2018-11-11T17:57:27.980Z,9.70
2018-11-11T17:59:56.568Z,9.60
2018-11-11T18:02:24.865Z,9.60
2018-11-11T18:04:53.226Z,9.50
2018-11-11T18:07:21.509Z,9.40
2018-11-11T18:09:49.791Z,9.40
2018-11-11T18:12:18.061Z,9.40
2018-11-11T18:14:46.320Z,9.40
2018-11-11T18:17:14.639Z,9.30
2018-11-11T18:19:43.002Z,9.30
2018-11-11T18:22:11.260Z,9.20
2018-11-11T18:24:39.532Z,9.20
2018-11-11T18:27:07.888Z,9.20
2018-11-11T18:29:36.221Z,9.20
2018-11-11T18:32:04.968Z,9.10
2018-11-11T18:34:33.309Z,9.10
2018-11-11T18:37:01.493Z,9.00
2018-11-11T18:39:29.769Z,9.00
2018-11-11T18:41:58.034Z,8.90
2018-11-11T18:44:26.333Z,8.90
2018-11-11T18:46:54.646Z,9.00
2018-11-11T18:49:23.022Z,9.00
2018-11-11T18:51:51.301Z,8.90
2018-11-11T18:54:19.576Z,8.80
2018-11-11T18:56:47.903Z,8.80
2018-11-11T18:59:16.258Z,8.80
2018-11-11T19:01:45.311Z,8.80
2018-11-11T19:04:13.597Z,8.80
2018-11-11T19:06:41.852Z,8.70
2018-11-11T19:09:11.986Z,8.60
2018-11-11T19:11:40.322Z,8.60
2018-11-11T19:14:09.152Z,8.60
2018-11-11T19:16:37.733Z,8.60
2018-11-11T19:19:06.537Z,8.50
2018-11-11T19:21:35.090Z,8.50
2018-11-11T19:24:03.568Z,8.40
2018-11-11T19:26:31.975Z,8.40
2018-11-11T19:29:00.284Z,8.40
2018-11-11T19:31:28.577Z,8.40
2018-11-11T19:33:56.842Z,8.30
2018-11-11T19:36:25.129Z,8.30
2018-11-11T19:38:54.173Z,8.20
2018-11-11T19:41:22.477Z,8.20
2018-11-11T19:43:50.701Z,8.20
2018-11-11T19:46:19.051Z,8.10
2018-11-11T19:48:47.250Z,8.10
2018-11-11T19:51:15.525Z,8.10
2018-11-11T19:53:43.841Z,7.90
2018-11-11T19:56:12.121Z,7.80
2018-11-11T19:58:40.418Z,7.80
2018-11-11T20:01:08.701Z,7.80
2018-11-11T20:03:37.145Z,7.80
2018-11-11T20:06:06.291Z,7.80
2018-11-11T20:08:34.548Z,7.80
2018-11-11T20:11:02.876Z,7.80
2018-11-11T20:13:31.161Z,7.80
2018-11-11T20:15:59.429Z,7.60
2018-11-11T20:18:27.696Z,7.60
2018-11-11T20:20:55.964Z,7.60
2018-11-11T20:23:24.244Z,7.60
2018-11-11T20:25:52.563Z,7.50
2018-11-11T20:28:20.916Z,7.50
2018-11-11T20:30:49.130Z,7.50
2018-11-11T20:33:17.432Z,7.50
2018-11-11T20:35:45.732Z,7.50
2018-11-11T20:38:14.033Z,7.50
2018-11-11T20:40:42.335Z,7.50
2018-11-11T20:43:10.659Z,7.40
2018-11-11T20:45:38.935Z,7.40
2018-11-11T20:48:07.197Z,7.40
2018-11-11T20:50:35.456Z,7.30
2018-11-11T20:53:05.076Z,7.30
2018-11-11T20:55:33.417Z,7.30
2018-11-11T20:58:01.913Z,7.20
2018-11-11T21:00:32.017Z,7.20
2018-11-11T21:03:00.296Z,7.20
2018-11-11T21:05:29.076Z,7.10
2018-11-11T21:07:57.431Z,7.20
2018-11-11T21:10:26.885Z,7.20
2018-11-11T21:12:55.897Z,7.20
2018-11-11T21:15:27.867Z,7.10
2018-11-11T21:17:57.023Z,7.10
2018-11-11T21:20:27.495Z,7.10
2018-11-11T21:25:24.589Z,7.10
2018-11-11T21:27:59.202Z,6.90
2018-11-11T21:30:28.722Z,6.90
2018-11-11T21:32:57.096Z,7.00
2018-11-11T21:35:25.411Z,6.90
2018-11-11T21:37:53.745Z,6.90
2018-11-11T21:40:23.269Z,6.80
2018-11-11T21:42:52.320Z,6.80
2018-11-11T21:45:21.731Z,6.80
2018-11-11T21:47:50.116Z,6.70
2018-11-11T21:50:22.969Z,6.70
2018-11-11T21:53:56.076Z,6.80
2018-11-11T21:56:24.487Z,6.70
2018-11-11T21:58:52.837Z,6.80
2018-11-11T22:01:23.449Z,6.80
2018-11-11T22:03:51.717Z,6.80
2018-11-11T22:06:20.019Z,6.80
2018-11-11T22:08:48.292Z,6.80
2018-11-11T22:11:17.184Z,6.80
2018-11-11T22:13:45.442Z,6.80
2018-11-11T22:16:13.816Z,6.80
2018-11-11T22:18:42.121Z,6.70
2018-11-11T22:21:10.451Z,6.70
2018-11-11T22:23:38.742Z,6.80
2018-11-11T22:26:07.057Z,6.80
2018-11-11T22:28:35.353Z,6.90
2018-11-11T22:31:03.693Z,6.80
2018-11-11T22:33:32.017Z,6.70
2018-11-11T22:36:00.324Z,6.70
2018-11-11T22:38:28.602Z,6.70
2018-11-11T22:40:57.736Z,6.80
2018-11-11T22:43:26.023Z,6.80
2018-11-11T22:45:54.349Z,6.80
2018-11-11T22:48:22.656Z,6.90
2018-11-11T22:50:51.324Z,6.90
2018-11-11T22:53:19.649Z,7.00
2018-11-11T22:55:48.055Z,7.10
2018-11-11T22:58:16.370Z,7.10
2018-11-11T23:00:49.996Z,7.10
2018-11-11T23:03:18.309Z,7.10
2018-11-11T23:05:46.997Z,7.00
2018-11-11T23:08:15.449Z,7.00
2018-11-11T23:10:43.776Z,6.90
2018-11-11T23:13:12.237Z,6.90
2018-11-11T23:15:40.556Z,6.90
2018-11-11T23:18:08.896Z,6.90
2018-11-11T23:20:37.238Z,6.90
2018-11-11T23:23:05.623Z,7.00
2018-11-11T23:25:33.957Z,7.00
2018-11-11T23:28:02.247Z,7.00
2018-11-11T23:30:30.605Z,6.90
2018-11-11T23:32:58.901Z,6.80
2018-11-11T23:35:27.174Z,6.80
2018-11-11T23:37:55.455Z,6.80
2018-11-11T23:40:23.742Z,6.70
2018-11-11T23:42:52.022Z,6.50
2018-11-11T23:45:20.335Z,6.40
2018-11-11T23:47:48.589Z,6.40
2018-11-11T23:50:18.220Z,6.40
2018-11-11T23:52:46.910Z,6.40
2018-11-11T23:55:16.409Z,6.40
2018-11-11T23:57:44.673Z,6.50
